createdAt,value
2023-03-13T00:01:28.068Z,4.58
2023-03-13T00:03:55.764Z,3.66
2023-03-13T00:06:35.527Z,3.07
2023-03-13T00:09:03.257Z,2.59
2023-03-13T00:11:30.333Z,2.22
2023-03-13T00:13:59.121Z,2.38
2023-03-13T00:16:26.356Z,4.63
2023-03-13T00:18:54.476Z,6.48
2023-03-13T00:21:23.755Z,5.71
2023-03-13T00:23:50.646Z,4.61
2023-03-13T00:26:21.689Z,3.77
2023-03-13T00:28:51.056Z,3.18
2023-03-13T00:31:19.760Z,2.72
2023-03-13T00:33:53.761Z,3.11
2023-03-13T00:36:26.636Z,5.54
2023-03-13T00:38:55.292Z,6.44
2023-03-13T00:41:25.741Z,5.40
2023-03-13T00:43:53.574Z,4.34
2023-03-13T00:46:23.229Z,3.59
2023-03-13T00:48:51.029Z,2.99
2023-03-13T00:51:19.689Z,3.04
2023-03-13T00:53:48.947Z,5.25
2023-03-13T00:56:20.074Z,6.18
2023-03-13T00:58:48.888Z,5.21
2023-03-13T01:01:20.678Z,4.24
2023-03-13T01:03:53.625Z,3.52
2023-03-13T01:06:24.311Z,2.99
2023-03-13T01:08:52.974Z,2.75
2023-03-13T01:11:22.653Z,4.29
2023-03-13T01:13:50.693Z,6.15
2023-03-13T01:16:20.797Z,5.70
2023-03-13T01:18:53.771Z,4.70
2023-03-13T01:21:21.891Z,3.88
2023-03-13T01:23:50.394Z,3.31
2023-03-13T01:26:18.616Z,2.99
2023-03-13T01:28:45.958Z,4.54
2023-03-13T01:31:34.821Z,6.21
2023-03-13T01:34:04.642Z,5.38
2023-03-13T01:36:32.035Z,4.43
2023-03-13T01:39:01.095Z,3.73
2023-03-13T01:41:30.328Z,3.22
2023-03-13T01:43:58.332Z,3.34
2023-03-13T01:46:30.776Z,5.54
2023-03-13T01:49:21.363Z,7.06
2023-03-13T01:52:22.936Z,5.95
2023-03-13T01:55:08.648Z,4.92
2023-03-13T01:57:47.181Z,4.21
2023-03-13T02:00:22.664Z,3.74
2023-03-13T02:02:53.685Z,3.51
2023-03-13T02:05:23.021Z,5.26
2023-03-13T02:07:57.337Z,5.68
2023-03-13T02:10:26.925Z,4.58
2023-03-13T02:12:57.773Z,3.65
2023-03-13T02:18:07.800Z,5.65
2023-03-13T02:20:34.883Z,6.08
2023-03-13T02:23:13.843Z,5.05
2023-03-13T02:25:48.762Z,4.07
2023-03-13T02:28:22.036Z,3.40
2023-03-13T02:30:51.679Z,3.86
2023-03-13T02:33:21.286Z,5.85
2023-03-13T02:35:48.693Z,5.48
2023-03-13T02:38:24.349Z,4.55
2023-03-13T02:40:54.018Z,3.72
2023-03-13T02:43:32.639Z,3.78
2023-03-13T02:46:15.058Z,5.99
2023-03-13T02:48:47.546Z,5.60
2023-03-13T02:51:25.121Z,4.61
2023-03-13T02:53:56.300Z,3.78
2023-03-13T02:56:25.904Z,3.89
2023-03-13T02:58:53.340Z,6.06
2023-03-13T03:01:22.362Z,5.97
2023-03-13T03:03:49.309Z,4.99
2023-03-13T03:06:16.302Z,4.16
2023-03-13T03:08:44.082Z,3.70
2023-03-13T03:11:12.764Z,5.11
2023-03-13T03:13:41.410Z,6.65
2023-03-13T03:16:15.465Z,5.91
2023-03-13T03:18:42.465Z,4.87
2023-03-13T03:21:09.363Z,4.13
2023-03-13T03:23:39.005Z,4.20
2023-03-13T03:26:07.648Z,6.14
2023-03-13T03:28:35.053Z,6.66
2023-03-13T03:31:06.356Z,5.71
2023-03-13T03:33:34.202Z,4.80
2023-03-13T03:36:07.479Z,4.15
2023-03-13T03:38:34.931Z,4.16
2023-03-13T03:41:02.325Z,6.21
2023-03-13T03:43:29.798Z,7.16
2023-03-13T03:45:56.947Z,6.20
2023-03-13T03:48:24.527Z,5.16
2023-03-13T03:50:51.774Z,4.45
2023-03-13T03:53:19.165Z,5.78
2023-03-13T03:57:08.197Z,6.73
2023-03-13T03:59:35.570Z,5.54
2023-03-13T04:02:05.834Z,4.67
2023-03-13T04:04:33.573Z,5.98
2023-03-13T04:07:13.169Z,7.21
2023-03-13T04:09:40.523Z,6.18
2023-03-13T04:12:09.116Z,5.09
2023-03-13T04:14:40.754Z,5.21
2023-03-13T04:17:10.282Z,7.22
2023-03-13T04:19:37.360Z,7.02
2023-03-13T04:22:04.278Z,5.76
2023-03-13T04:24:31.670Z,4.77
2023-03-13T04:26:59.644Z,5.46
2023-03-13T04:29:26.907Z,7.09
2023-03-13T04:32:02.495Z,6.16
2023-03-13T04:35:00.038Z,4.81
2023-03-13T04:38:01.341Z,5.10
2023-03-13T04:41:00.480Z,6.82
2023-03-13T04:43:44.061Z,5.90
2023-03-13T04:46:31.203Z,4.83
2023-03-13T04:49:14.635Z,5.69
2023-03-13T04:52:08.089Z,7.02
2023-03-13T04:54:54.196Z,5.94
2023-03-13T04:57:50.609Z,4.82
2023-03-13T05:00:41.172Z,5.70
2023-03-13T05:03:20.944Z,7.59
2023-03-13T05:06:02.372Z,6.68
2023-03-13T05:08:49.125Z,5.39
2023-03-13T05:11:19.229Z,5.24
2023-03-13T05:14:11.299Z,7.47
2023-03-13T05:16:59.454Z,7.34
2023-03-13T05:19:46.902Z,5.88
2023-03-13T05:22:37.977Z,5.74
2023-03-13T05:25:18.014Z,7.73
2023-03-13T05:27:53.560Z,7.77
2023-03-13T05:30:41.023Z,6.45
2023-03-13T05:33:14.474Z,5.53
2023-03-13T05:35:50.358Z,6.49
2023-03-13T05:38:23.054Z,8.18
2023-03-13T05:41:10.718Z,7.24
2023-03-13T05:43:56.449Z,6.00
2023-03-13T05:46:35.229Z,5.84
2023-03-13T05:49:16.816Z,8.21
2023-03-13T05:52:02.146Z,8.32
2023-03-13T05:54:41.307Z,6.88
2023-03-13T05:57:27.081Z,5.79
2023-03-13T06:00:29.556Z,7.62
2023-03-13T06:03:14.354Z,7.88
2023-03-13T06:05:44.023Z,6.76
2023-03-13T06:08:30.880Z,6.49
2023-03-13T06:11:02.039Z,8.49
2023-03-13T06:13:29.629Z,8.50
2023-03-13T06:16:01.287Z,7.20
2023-03-13T06:18:54.435Z,6.29
2023-03-13T06:21:21.386Z,7.87
2023-03-13T06:23:48.345Z,9.50
2023-03-13T06:26:15.145Z,8.33
2023-03-13T06:28:42.090Z,7.06
2023-03-13T06:31:09.269Z,7.51
2023-03-13T06:33:36.141Z,9.46
2023-03-13T06:36:04.236Z,8.92
2023-03-13T06:38:31.378Z,7.58
2023-03-13T06:40:58.660Z,7.64
2023-03-13T06:43:25.793Z,9.57
2023-03-13T06:45:52.871Z,9.76
2023-03-13T06:48:20.402Z,8.35
2023-03-13T06:50:47.320Z,7.83
2023-03-13T06:53:19.506Z,9.51
2023-03-13T06:55:47.170Z,10.42
2023-03-13T06:58:25.214Z,9.36
2023-03-13T07:00:57.978Z,7.98
2023-03-13T07:03:25.209Z,9.00
2023-03-13T07:05:59.722Z,10.19
2023-03-13T07:08:27.793Z,9.06
2023-03-13T07:10:59.629Z,8.06
2023-03-13T07:13:27.109Z,9.54
2023-03-13T07:15:54.584Z,10.11
2023-03-13T07:18:22.367Z,8.85
2023-03-13T07:20:54.726Z,8.06
2023-03-13T07:23:22.639Z,9.56
2023-03-13T07:25:57.537Z,10.67
2023-03-13T07:28:26.251Z,9.68
2023-03-13T07:30:53.949Z,8.43
2023-03-13T07:33:20.991Z,8.81
2023-03-13T07:35:50.498Z,10.44
2023-03-13T07:38:18.163Z,10.06
2023-03-13T07:40:53.385Z,8.73
2023-03-13T07:43:20.801Z,8.34
2023-03-13T07:45:59.723Z,9.98
2023-03-13T07:48:31.033Z,11.06
2023-03-13T07:50:58.644Z,10.04
2023-03-13T07:53:25.518Z,8.84
2023-03-13T07:56:04.207Z,8.62
2023-03-13T07:58:34.033Z,10.60
2023-03-13T08:01:01.289Z,10.61
2023-03-13T08:03:29.225Z,9.48
2023-03-13T08:06:20.641Z,8.64
2023-03-13T08:08:48.087Z,10.42
2023-03-13T08:11:21.436Z,11.04
2023-03-13T08:13:50.282Z,9.88
2023-03-13T08:16:24.404Z,8.69
2023-03-13T08:18:56.662Z,8.78
2023-03-13T08:21:29.002Z,11.32
2023-03-13T08:23:58.190Z,11.12
2023-03-13T08:26:30.320Z,9.71
2023-03-13T08:28:59.859Z,9.03
2023-03-13T08:31:31.917Z,10.90
2023-03-13T08:33:59.527Z,11.60
2023-03-13T08:36:29.237Z,10.42
2023-03-13T08:38:59.551Z,9.35
2023-03-13T08:41:32.298Z,9.65
2023-03-13T08:43:59.617Z,11.44
2023-03-13T08:46:29.248Z,10.84
2023-03-13T08:48:56.250Z,9.72
2023-03-13T08:51:25.790Z,9.36
2023-03-13T08:53:53.748Z,11.14
2023-03-13T08:56:22.464Z,11.12
2023-03-13T08:58:58.111Z,9.93
2023-03-13T09:01:27.966Z,9.41
2023-03-13T09:03:55.442Z,11.16
2023-03-13T09:06:22.934Z,11.73
2023-03-13T09:08:51.148Z,10.67
2023-03-13T09:11:20.764Z,9.65
2023-03-13T09:13:50.139Z,9.79
2023-03-13T09:16:22.872Z,11.73
2023-03-13T09:18:52.122Z,11.66
2023-03-13T09:21:31.363Z,10.74
2023-03-13T09:23:58.828Z,10.11
2023-03-13T09:26:27.746Z,11.31
2023-03-13T09:28:55.367Z,12.55
2023-03-13T09:31:28.073Z,12.35
2023-03-13T09:33:55.630Z,12.17
2023-03-13T09:36:24.176Z,12.20
2023-03-13T09:38:57.234Z,12.21
2023-03-13T09:41:26.412Z,11.98
2023-03-13T09:44:05.337Z,11.67
2023-03-13T09:46:52.559Z,11.38
2023-03-13T09:49:41.596Z,11.14
2023-03-13T09:52:22.576Z,11.10
2023-03-13T09:54:55.146Z,11.26
2023-03-13T09:57:38.768Z,11.34
2023-03-13T10:00:13.907Z,11.50
2023-03-13T10:02:46.825Z,11.57
2023-03-13T10:05:19.771Z,11.48
2023-03-13T10:07:47.126Z,11.39
2023-03-13T10:10:39.271Z,11.43
2023-03-13T10:13:39.861Z,11.61
2023-03-13T10:16:27.497Z,11.79
2023-03-13T10:18:58.345Z,12.13
2023-03-13T10:21:33.984Z,12.41
2023-03-13T10:24:33.113Z,12.63
2023-03-13T10:26:59.935Z,12.87
2023-03-13T10:29:29.613Z,12.94
2023-03-13T10:32:08.155Z,12.87
2023-03-13T10:34:56.727Z,12.84
2023-03-13T10:37:30.216Z,12.73
2023-03-13T10:40:24.906Z,12.66
2023-03-13T10:42:59.831Z,12.62
2023-03-13T10:45:31.478Z,12.60
2023-03-13T10:48:03.439Z,12.58
2023-03-13T10:50:36.990Z,12.46
2023-03-13T10:53:26.294Z,12.40
2023-03-13T10:55:55.622Z,12.33
2023-03-13T10:58:40.559Z,12.34
2023-03-13T11:01:42.119Z,12.32
2023-03-13T11:04:32.318Z,13.20
2023-03-13T11:07:06.021Z,15.23
2023-03-13T11:09:33.558Z,14.62
2023-03-13T11:12:33.646Z,13.89
2023-03-13T11:15:02.329Z,13.24
2023-03-13T11:17:41.025Z,12.87
2023-03-13T11:20:12.724Z,12.62
2023-03-13T11:22:55.642Z,12.48
2023-03-13T11:25:31.871Z,12.31
2023-03-13T11:28:04.288Z,12.38
2023-03-13T11:30:52.715Z,14.34
2023-03-13T11:33:22.397Z,14.80
2023-03-13T11:36:03.310Z,14.16
2023-03-13T11:38:36.692Z,13.72
2023-03-13T11:41:30.830Z,13.49
2023-03-13T11:44:13.033Z,13.31
2023-03-13T11:47:04.911Z,13.17
2023-03-13T11:50:00.421Z,12.93
2023-03-13T11:52:47.656Z,12.85
2023-03-13T11:55:20.426Z,12.95
2023-03-13T11:57:53.416Z,13.24
2023-03-13T12:00:36.933Z,13.91
2023-03-13T12:03:55.103Z,14.91
2023-03-13T12:06:29.796Z,15.47
2023-03-13T12:09:06.951Z,16.07
2023-03-13T12:11:43.935Z,16.49
2023-03-13T12:14:22.378Z,16.46
2023-03-13T12:17:01.105Z,16.21
2023-03-13T12:19:52.205Z,15.82
2023-03-13T12:22:40.402Z,15.43
2023-03-13T12:25:21.771Z,15.03
2023-03-13T12:27:55.281Z,14.71
2023-03-13T12:30:38.034Z,14.46
2023-03-13T12:33:30.094Z,14.15
2023-03-13T12:36:13.762Z,13.76
2023-03-13T12:39:01.217Z,13.39
2023-03-13T12:41:35.264Z,13.06
2023-03-13T12:44:09.038Z,12.85
2023-03-13T12:46:46.606Z,12.85
2023-03-13T12:49:30.030Z,14.48
2023-03-13T12:52:38.719Z,15.79
2023-03-13T12:55:27.388Z,14.66
2023-03-13T12:58:22.299Z,13.60
2023-03-13T13:00:51.776Z,13.55
2023-03-13T13:03:32.216Z,15.17
2023-03-13T13:06:11.111Z,16.47
2023-03-13T13:09:02.848Z,15.62
2023-03-13T13:11:39.494Z,14.67
2023-03-13T13:14:12.357Z,15.93
2023-03-13T13:16:44.259Z,15.51
2023-03-13T13:19:23.648Z,14.70
2023-03-13T13:22:28.844Z,15.93
2023-03-13T13:25:22.669Z,15.67
2023-03-13T13:27:49.824Z,14.07
2023-03-13T13:30:19.578Z,14.93
2023-03-13T13:32:46.588Z,16.31
2023-03-13T13:35:13.539Z,16.60
2023-03-13T13:37:41.358Z,15.24
2023-03-13T13:40:32.264Z,14.82
2023-03-13T13:43:02.911Z,15.83
2023-03-13T13:45:40.375Z,16.40
2023-03-13T13:48:40.097Z,16.20
2023-03-13T13:51:14.394Z,14.85
2023-03-13T13:53:53.324Z,15.50
2023-03-13T13:56:29.838Z,16.29
2023-03-13T13:59:25.110Z,16.54
2023-03-13T14:02:32.264Z,15.29
2023-03-13T14:05:15.201Z,16.04
2023-03-13T14:07:45.265Z,16.68
2023-03-13T14:10:29.558Z,17.16
2023-03-13T14:12:58.708Z,16.75
2023-03-13T14:15:28.890Z,15.35
2023-03-13T14:18:13.467Z,16.08
2023-03-13T14:20:53.158Z,16.93
2023-03-13T14:23:49.532Z,16.89
2023-03-13T14:26:19.884Z,15.34
2023-03-13T14:28:58.785Z,16.05
2023-03-13T14:31:28.228Z,17.09
2023-03-13T14:33:57.895Z,16.46
2023-03-13T14:36:25.718Z,15.32
2023-03-13T14:39:01.382Z,16.20
2023-03-13T14:41:45.243Z,17.12
2023-03-13T14:44:23.621Z,16.09
2023-03-13T14:46:56.756Z,14.97
2023-03-13T14:49:26.709Z,16.33
2023-03-13T14:51:59.256Z,17.26
2023-03-13T14:54:32.245Z,16.36
2023-03-13T14:57:09.624Z,15.26
2023-03-13T14:59:36.947Z,16.45
2023-03-13T15:02:13.298Z,17.24
2023-03-13T15:04:49.414Z,15.72
2023-03-13T15:07:17.286Z,15.51
2023-03-13T15:09:46.489Z,16.69
2023-03-13T15:12:16.559Z,15.64
2023-03-13T15:14:49.145Z,15.23
2023-03-13T15:17:24.145Z,16.41
2023-03-13T15:20:00.956Z,16.95
2023-03-13T15:22:33.494Z,15.27
2023-03-13T15:25:08.585Z,15.04
2023-03-13T15:27:39.009Z,16.28
2023-03-13T15:30:07.289Z,16.71
2023-03-13T15:32:38.158Z,15.26
2023-03-13T15:35:28.887Z,15.49
2023-03-13T15:37:58.078Z,16.69
2023-03-13T15:40:25.699Z,16.06
2023-03-13T15:42:53.371Z,14.74
2023-03-13T15:45:21.315Z,15.89
2023-03-13T15:47:49.154Z,16.65
2023-03-13T15:50:22.795Z,16.38
2023-03-13T15:52:49.709Z,14.86
2023-03-13T15:55:16.937Z,15.71
2023-03-13T15:57:49.273Z,16.52
2023-03-13T16:00:21.267Z,15.29
2023-03-13T16:02:48.449Z,15.32
2023-03-13T16:05:16.167Z,16.27
2023-03-13T16:07:43.373Z,16.60
2023-03-13T16:10:23.855Z,14.84
2023-03-13T16:12:52.980Z,14.92
2023-03-13T16:15:20.309Z,15.79
2023-03-13T16:17:47.544Z,15.96
2023-03-13T16:20:18.274Z,16.23
2023-03-13T16:22:45.669Z,16.44
2023-03-13T16:25:14.039Z,16.45
2023-03-13T16:27:42.054Z,15.08
2023-03-13T16:30:21.740Z,15.03
2023-03-13T16:32:48.845Z,16.05
2023-03-13T16:35:15.915Z,16.45
2023-03-13T16:37:43.079Z,15.13
2023-03-13T16:40:19.005Z,15.45
2023-03-13T16:42:45.971Z,16.43
2023-03-13T16:45:14.921Z,16.33
2023-03-13T16:47:43.771Z,14.77
2023-03-13T16:50:23.649Z,15.49
2023-03-13T16:52:51.774Z,16.01
2023-03-13T16:55:20.014Z,14.65
2023-03-13T16:57:47.081Z,15.12
2023-03-13T17:00:22.367Z,16.45
2023-03-13T17:02:49.806Z,15.62
2023-03-13T17:05:17.669Z,14.53
2023-03-13T17:07:48.054Z,15.83
2023-03-13T17:10:30.338Z,15.88
2023-03-13T17:12:58.179Z,14.43
2023-03-13T17:15:30.190Z,15.38
2023-03-13T17:17:57.324Z,16.18
2023-03-13T17:20:30.074Z,14.72
2023-03-13T17:22:57.675Z,14.48
2023-03-13T17:25:25.489Z,15.86
2023-03-13T17:27:53.090Z,15.27
2023-03-13T17:30:27.778Z,14.35
2023-03-13T17:32:54.901Z,15.60
2023-03-13T17:35:22.871Z,15.98
2023-03-13T17:37:50.297Z,14.46
2023-03-13T17:40:24.590Z,14.62
2023-03-13T17:42:51.584Z,16.02
2023-03-13T17:45:19.346Z,15.69
2023-03-13T17:47:47.327Z,14.21
2023-03-13T17:50:17.383Z,14.51
2023-03-13T17:52:44.598Z,15.77
2023-03-13T17:55:14.706Z,15.88
2023-03-13T17:57:42.264Z,14.42
2023-03-13T18:00:20.450Z,14.30
2023-03-13T18:02:47.409Z,15.67
2023-03-13T18:05:14.532Z,15.05
2023-03-13T18:07:44.451Z,13.74
2023-03-13T18:10:16.003Z,14.57
2023-03-13T18:12:42.933Z,15.48
2023-03-13T18:15:10.374Z,14.21
2023-03-13T18:17:37.334Z,13.82
2023-03-13T18:20:05.354Z,15.33
2023-03-13T18:22:34.705Z,14.57
2023-03-13T18:25:01.951Z,13.45
2023-03-13T18:27:29.197Z,14.49
2023-03-13T18:29:58.899Z,15.49
2023-03-13T18:32:25.796Z,14.36
2023-03-13T18:34:52.643Z,13.41
2023-03-13T18:37:19.483Z,14.88
2023-03-13T18:39:46.347Z,15.34
2023-03-13T18:42:13.148Z,13.97
2023-03-13T18:44:40.191Z,13.47
2023-03-13T18:47:15.525Z,15.04
2023-03-13T18:49:42.746Z,15.27
2023-03-13T18:52:11.678Z,13.93
2023-03-13T18:54:39.026Z,13.36
2023-03-13T18:57:32.009Z,15.00
2023-03-13T18:59:58.886Z,14.81
2023-03-13T19:02:25.796Z,13.58
2023-03-13T19:04:52.761Z,13.30
2023-03-13T19:07:26.471Z,14.84
2023-03-13T19:09:56.535Z,14.49
2023-03-13T19:12:23.554Z,13.29
2023-03-13T19:14:50.506Z,13.02
2023-03-13T19:17:29.639Z,14.91
2023-03-13T19:19:59.698Z,14.79
2023-03-13T19:22:27.103Z,13.55
2023-03-13T19:24:54.082Z,12.73
2023-03-13T19:27:20.992Z,14.00
2023-03-13T19:29:48.121Z,14.95
2023-03-13T19:32:17.756Z,13.99
2023-03-13T19:34:44.898Z,12.93
2023-03-13T19:37:14.351Z,12.80
2023-03-13T19:39:42.561Z,14.43
2023-03-13T19:42:09.659Z,14.27
2023-03-13T19:44:37.795Z,13.24
2023-03-13T19:47:05.548Z,12.44
2023-03-13T19:49:33.785Z,13.04
2023-03-13T19:52:00.756Z,14.42
2023-03-13T19:54:27.660Z,14.00
2023-03-13T19:56:54.828Z,13.01
2023-03-13T19:59:24.498Z,12.25
2023-03-13T20:01:51.495Z,12.39
2023-03-13T20:04:18.417Z,14.12
2023-03-13T20:06:45.882Z,14.31
2023-03-13T20:09:15.383Z,13.41
2023-03-13T20:11:43.716Z,12.64
2023-03-13T20:14:11.050Z,12.48
2023-03-13T20:16:38.533Z,14.10
2023-03-13T20:19:05.521Z,14.64
2023-03-13T20:21:37.585Z,13.78
2023-03-13T20:24:05.097Z,12.97
2023-03-13T20:26:32.031Z,12.35
2023-03-13T20:28:59.152Z,12.47
2023-03-13T20:31:29.845Z,14.16
2023-03-13T20:33:58.262Z,14.15
2023-03-13T20:36:25.915Z,13.30
2023-03-13T20:38:52.990Z,12.55
2023-03-13T20:41:25.050Z,12.13
2023-03-13T20:43:54.004Z,13.53
2023-03-13T20:46:21.521Z,14.89
2023-03-13T20:48:49.114Z,14.11
2023-03-13T20:51:17.129Z,13.17
2023-03-13T20:53:44.661Z,12.48
2023-03-13T20:56:12.466Z,12.07
2023-03-13T20:58:40.287Z,13.31
2023-03-13T21:01:08.575Z,14.36
2023-03-13T21:03:36.488Z,13.73
2023-03-13T21:06:11.818Z,12.92
2023-03-13T21:08:39.283Z,12.26
2023-03-13T21:11:14.177Z,12.56
2023-03-13T21:13:41.165Z,14.27
2023-03-13T21:16:08.932Z,13.84
2023-03-13T21:18:36.460Z,13.03
2023-03-13T21:21:09.259Z,12.40
2023-03-13T21:23:37.851Z,12.00
2023-03-13T21:26:05.857Z,13.58
2023-03-13T21:28:32.980Z,14.79
2023-03-13T21:31:12.221Z,13.94
2023-03-13T21:33:41.391Z,12.96
2023-03-13T21:36:10.138Z,12.32
2023-03-13T21:38:37.124Z,11.86
2023-03-13T21:41:09.262Z,12.50
2023-03-13T21:43:37.618Z,14.11
2023-03-13T21:46:04.774Z,13.63
2023-03-13T21:48:31.806Z,12.79
2023-03-13T21:50:59.310Z,12.18
2023-03-13T21:53:27.068Z,11.83
2023-03-13T21:55:54.200Z,13.04
2023-03-13T21:58:21.140Z,14.50
2023-03-13T22:00:48.244Z,13.81
2023-03-13T22:03:15.428Z,12.95
2023-03-13T22:05:44.037Z,12.30
2023-03-13T22:08:11.602Z,11.90
2023-03-13T22:10:39.299Z,13.39
2023-03-13T22:13:10.433Z,14.08
2023-03-13T22:15:37.375Z,13.15
2023-03-13T22:18:04.482Z,12.34
2023-03-13T22:20:31.440Z,11.86
2023-03-13T22:22:58.391Z,13.30
2023-03-13T22:25:25.451Z,14.38
2023-03-13T22:27:52.508Z,13.60
2023-03-13T22:30:19.529Z,12.68
2023-03-13T22:32:46.424Z,12.03
2023-03-13T22:35:13.514Z,12.12
2023-03-13T22:37:40.545Z,13.67
2023-03-13T22:40:07.983Z,13.41
2023-03-13T22:42:35.355Z,12.59
2023-03-13T22:45:02.375Z,11.97
2023-03-13T22:47:32.706Z,12.02
2023-03-13T22:49:59.786Z,13.65
2023-03-13T22:52:31.105Z,13.43
2023-03-13T22:54:58.822Z,12.59
2023-03-13T22:57:26.044Z,11.99
2023-03-13T22:59:54.074Z,11.59
2023-03-13T23:02:21.714Z,12.80
2023-03-13T23:04:48.516Z,13.92
2023-03-13T23:07:15.420Z,13.15
2023-03-13T23:09:42.393Z,12.37
2023-03-13T23:12:09.347Z,11.81
2023-03-13T23:14:36.560Z,11.56
2023-03-13T23:17:03.887Z,13.15
2023-03-13T23:19:34.658Z,13.20
2023-03-13T23:22:01.818Z,12.27
2023-03-13T23:24:29.079Z,11.51
2023-03-13T23:26:56.146Z,11.71
2023-03-13T23:29:23.198Z,13.36
2023-03-13T23:31:50.236Z,13.25
2023-03-13T23:34:22.019Z,12.37
2023-03-13T23:36:50.126Z,11.56
2023-03-13T23:39:17.131Z,11.60
2023-03-13T23:41:44.086Z,13.21
2023-03-13T23:44:11.133Z,12.79
2023-03-13T23:46:37.960Z,11.87
2023-03-13T23:49:05.235Z,11.24
2023-03-13T23:51:33.300Z,12.09
2023-03-13T23:54:00.798Z,13.37
2023-03-13T23:56:29.733Z,12.70
2023-03-13T23:58:56.524Z,11.76
